Time;durP1;ratioP1;P1;durP2;ratioP2;P2;SDS_P1;SDS_P2;PMS_P1;PMS_P2;Temp;Humidity;BMP_temperature;BMP_pressure;BME280_temperature;BME280_humidity;BME280_pressure;Samples;Min_cycle;Max_cycle;Signal;HPM_P1;HPM_P2
2023/12/02 00:00:56;;;;;;;0.50;0.50;;;;;;;;;;6221738;23;20009;-88
2023/12/02 00:03:22;;;;;;;0.60;0.60;;;;;;;;;;6200159;23;20042;-89
2023/12/02 00:05:50;;;;;;;0.50;0.50;;;;;;;;;;6225726;23;20005;-89
2023/12/02 00:08:16;;;;;;;0.50;0.50;;;;;;;;;;6222280;23;20023;-89
2023/12/02 00:10:43;;;;;;;0.50;0.50;;;;;;;;;;6197657;23;20196;-88
2023/12/02 00:13:11;;;;;;;0.60;0.60;;;;;;;;;;6199418;23;20012;-89
2023/12/02 00:15:37;;;;;;;0.57;0.57;;;;;;;;;;6198787;23;20100;-88
2023/12/02 00:18:03;;;;;;;0.60;0.60;;;;;;;;;;6198591;23;20014;-89
2023/12/02 00:20:29;;;;;;;0.60;0.60;;;;;;;;;;6197391;23;20012;-89
2023/12/02 00:22:55;;;;;;;0.50;0.50;;;;;;;;;;6196187;23;20050;-89
2023/12/02 00:25:25;;;;;;;0.50;0.50;;;;;;;;;;6220754;23;20051;-89
2023/12/02 00:27:51;;;;;;;0.50;0.50;;;;;;;;;;6196979;23;20058;-88
2023/12/02 00:30:17;;;;;;;0.50;0.50;;;;;;;;;;6196584;23;20020;-89
2023/12/02 00:32:43;;;;;;;0.50;0.50;;;;;;;;;;6194797;23;20013;-88
2023/12/02 00:35:09;;;;;;;0.50;0.50;;;;;;;;;;6195130;23;20483;-89
2023/12/02 00:37:36;;;;;;;0.50;0.50;;;;;;;;;;6195354;23;20005;-88
2023/12/02 00:40:02;;;;;;;0.60;0.60;;;;;;;;;;6194993;23;20020;-88
2023/12/02 00:42:28;;;;;;;0.60;0.60;;;;;;;;;;6195400;23;20012;-89
2023/12/02 00:44:57;;;;;;;0.60;0.60;;;;;;;;;;6197886;23;20013;-89
2023/12/02 00:47:23;;;;;;;0.50;0.50;;;;;;;;;;6195249;23;20060;-89
2023/12/02 00:49:49;;;;;;;0.50;0.50;;;;;;;;;;6221484;23;20012;-89
2023/12/02 00:52:15;;;;;;;0.50;0.50;;;;;;;;;;6195265;23;20070;-87
2023/12/02 00:54:41;;;;;;;0.50;0.50;;;;;;;;;;6196133;23;20091;-88
2023/12/02 00:57:07;;;;;;;0.55;0.55;;;;;;;;;;6219580;23;20017;-87
2023/12/02 00:59:33;;;;;;;0.50;0.50;;;;;;;;;;6219967;23;20009;-88
2023/12/02 01:02:11;;;;;;;0.60;0.60;;;;;;;;;;6195383;23;20020;-89
2023/12/02 01:04:37;;;;;;;0.60;0.60;;;;;;;;;;6201092;23;20012;-89
2023/12/02 01:07:05;;;;;;;0.60;0.60;;;;;;;;;;6222579;23;20395;-88
2023/12/02 01:09:31;;;;;;;0.55;0.55;;;;;;;;;;6197452;23;20013;-88
2023/12/02 01:11:57;;;;;;;0.60;0.60;;;;;;;;;;6197419;23;20068;-88
2023/12/02 01:14:24;;;;;;;0.60;0.60;;;;;;;;;;6224421;23;20448;-89
2023/12/02 01:16:50;;;;;;;0.60;0.60;;;;;;;;;;6197590;23;20470;-89
2023/12/02 01:19:16;;;;;;;0.50;0.50;;;;;;;;;;6196278;23;20019;-88
2023/12/02 01:21:42;;;;;;;0.60;0.60;;;;;;;;;;6221421;23;20095;-88
2023/12/02 01:24:08;;;;;;;0.60;0.60;;;;;;;;;;6196566;23;20020;-89
2023/12/02 01:26:34;;;;;;;0.60;0.60;;;;;;;;;;6195099;23;20016;-89
2023/12/02 01:29:01;;;;;;;0.45;0.45;;;;;;;;;;6193926;23;20505;-89
2023/12/02 01:31:27;;;;;;;0.60;0.60;;;;;;;;;;6196183;23;20017;-89
2023/12/02 01:33:53;;;;;;;0.60;0.60;;;;;;;;;;6220145;23;20017;-89
2023/12/02 01:36:19;;;;;;;0.50;0.50;;;;;;;;;;6224660;23;20004;-88
2023/12/02 01:38:50;;;;;;;0.50;0.50;;;;;;;;;;6196641;23;20031;-89
2023/12/02 01:41:16;;;;;;;0.52;0.52;;;;;;;;;;6197172;23;20072;-88
2023/12/02 01:43:44;;;;;;;0.50;0.50;;;;;;;;;;6198222;23;20023;-89
2023/12/02 01:46:10;;;;;;;0.50;0.50;;;;;;;;;;6195298;23;20047;-88
2023/12/02 01:48:36;;;;;;;0.60;0.60;;;;;;;;;;6224645;23;20020;-88
2023/12/02 01:51:03;;;;;;;0.50;0.50;;;;;;;;;;6196824;23;20025;-89
2023/12/02 01:53:29;;;;;;;0.60;0.60;;;;;;;;;;6222880;23;20020;-89
2023/12/02 01:55:55;;;;;;;0.50;0.50;;;;;;;;;;6198549;23;20020;-89
2023/12/02 01:58:21;;;;;;;0.50;0.50;;;;;;;;;;6220365;23;20336;-89
2023/12/02 02:00:47;;;;;;;0.60;0.60;;;;;;;;;;6194398;23;20019;-89
2023/12/02 02:03:13;;;;;;;0.50;0.50;;;;;;;;;;6197476;23;20499;-88
2023/12/02 02:05:39;;;;;;;0.60;0.60;;;;;;;;;;6222054;23;20024;-88
2023/12/02 02:08:05;;;;;;;0.50;0.50;;;;;;;;;;6220784;23;20046;-89
2023/12/02 02:10:31;;;;;;;0.50;0.50;;;;;;;;;;6198701;23;20023;-88
2023/12/02 02:12:57;;;;;;;0.50;0.50;;;;;;;;;;6220749;23;20064;-89
2023/12/02 02:15:23;;;;;;;0.50;0.50;;;;;;;;;;6221737;23;20020;-88
2023/12/02 02:17:49;;;;;;;0.50;0.50;;;;;;;;;;6221620;23;20027;-88
2023/12/02 02:20:15;;;;;;;0.50;0.50;;;;;;;;;;6220484;23;20020;-89
2023/12/02 02:22:41;;;;;;;0.60;0.60;;;;;;;;;;6196198;23;20017;-89
2023/12/02 02:25:07;;;;;;;0.55;0.55;;;;;;;;;;6194465;23;20097;-89
2023/12/02 02:27:33;;;;;;;0.50;0.50;;;;;;;;;;6221029;23;20391;-88
2023/12/02 02:30:00;;;;;;;0.50;0.50;;;;;;;;;;6195439;23;20444;-89
2023/12/02 02:32:26;;;;;;;0.50;0.50;;;;;;;;;;6220622;23;20012;-89
2023/12/02 02:34:52;;;;;;;0.50;0.50;;;;;;;;;;6195945;23;20016;-88
2023/12/02 02:37:18;;;;;;;0.50;0.50;;;;;;;;;;6195831;23;20484;-88
2023/12/02 02:39:45;;;;;;;0.50;0.50;;;;;;;;;;6220956;23;20079;-89
2023/12/02 02:42:14;;;;;;;0.50;0.50;;;;;;;;;;6196881;23;20009;-88
2023/12/02 02:44:40;;;;;;;0.50;0.50;;;;;;;;;;6220146;23;20023;-89
2023/12/02 02:47:06;;;;;;;0.60;0.60;;;;;;;;;;6195869;23;20016;-89
2023/12/02 02:49:32;;;;;;;0.50;0.50;;;;;;;;;;6221718;23;20422;-89
2023/12/02 02:52:14;;;;;;;0.50;0.50;;;;;;;;;;6196600;23;20016;-89
2023/12/02 02:54:40;;;;;;;0.50;0.50;;;;;;;;;;6196819;23;20012;-89
2023/12/02 02:57:06;;;;;;;0.60;0.60;;;;;;;;;;6195941;23;20380;-89
2023/12/02 02:59:32;;;;;;;0.50;0.50;;;;;;;;;;6195728;23;20071;-90
2023/12/02 03:01:58;;;;;;;0.60;0.60;;;;;;;;;;6196257;23;20040;-89
2023/12/02 03:04:24;;;;;;;0.60;0.60;;;;;;;;;;6221793;23;20020;-89
2023/12/02 03:06:50;;;;;;;0.50;0.50;;;;;;;;;;6195740;23;20016;-88
2023/12/02 03:09:17;;;;;;;0.55;0.55;;;;;;;;;;6195334;23;20016;-89
2023/12/02 03:11:43;;;;;;;0.50;0.50;;;;;;;;;;6195366;23;20023;-88
2023/12/02 03:14:09;;;;;;;0.50;0.50;;;;;;;;;;6195272;23;20016;-89
2023/12/02 03:16:35;;;;;;;0.60;0.60;;;;;;;;;;6195892;23;20451;-87
2023/12/02 03:19:01;;;;;;;0.50;0.50;;;;;;;;;;6196859;23;20440;-89
2023/12/02 03:21:27;;;;;;;0.50;0.50;;;;;;;;;;6221444;23;20013;-87
2023/12/02 03:23:53;;;;;;;0.60;0.60;;;;;;;;;;6196995;23;20321;-88
2023/12/02 03:26:19;;;;;;;0.60;0.60;;;;;;;;;;6197114;23;20024;-88
2023/12/02 03:28:45;;;;;;;0.55;0.55;;;;;;;;;;6221326;23;20055;-89
2023/12/02 03:31:13;;;;;;;0.50;0.50;;;;;;;;;;6221100;23;20009;-88
2023/12/02 03:33:39;;;;;;;0.50;0.50;;;;;;;;;;6220127;23;20012;-89
2023/12/02 03:36:06;;;;;;;0.50;0.50;;;;;;;;;;6194247;23;20459;-88
2023/12/02 03:38:32;;;;;;;0.50;0.50;;;;;;;;;;6194586;23;20076;-88
2023/12/02 03:40:59;;;;;;;0.50;0.50;;;;;;;;;;6219549;23;20013;-88
2023/12/02 03:43:25;;;;;;;0.60;0.60;;;;;;;;;;6193800;23;20013;-88
2023/12/02 03:45:51;;;;;;;0.52;0.52;;;;;;;;;;6221317;23;20023;-88
2023/12/02 03:48:17;;;;;;;0.50;0.50;;;;;;;;;;6194572;23;20013;-88
2023/12/02 03:50:44;;;;;;;0.60;0.60;;;;;;;;;;6195181;23;20128;-90
2023/12/02 03:53:10;;;;;;;0.50;0.50;;;;;;;;;;6171018;23;20020;-88
2023/12/02 03:55:36;;;;;;;0.60;0.60;;;;;;;;;;6220977;23;20343;-88
2023/12/02 03:58:02;;;;;;;0.60;0.60;;;;;;;;;;6194419;23;20463;-89
2023/12/02 04:00:28;;;;;;;0.50;0.50;;;;;;;;;;6192996;23;20013;-87
2023/12/02 04:02:54;;;;;;;0.52;0.52;;;;;;;;;;6195638;23;20015;-88
2023/12/02 04:05:20;;;;;;;0.50;0.50;;;;;;;;;;6195264;23;20048;-89
2023/12/02 04:07:46;;;;;;;0.60;0.60;;;;;;;;;;6194578;23;20024;-88
2023/12/02 04:10:12;;;;;;;0.50;0.50;;;;;;;;;;6219410;23;20031;-89
2023/12/02 04:12:38;;;;;;;0.60;0.60;;;;;;;;;;6195057;23;20317;-89
2023/12/02 04:15:06;;;;;;;0.50;0.50;;;;;;;;;;6194408;23;20017;-88
2023/12/02 04:17:32;;;;;;;0.47;0.47;;;;;;;;;;6169138;23;20094;-87
2023/12/02 04:19:58;;;;;;;0.50;0.50;;;;;;;;;;6196140;23;20051;-89
2023/12/02 04:22:24;;;;;;;0.52;0.52;;;;;;;;;;6193868;23;20394;-88
2023/12/02 04:24:51;;;;;;;0.50;0.50;;;;;;;;;;6194477;23;20100;-88
2023/12/02 04:27:17;;;;;;;0.52;0.52;;;;;;;;;;6170592;23;20092;-89
2023/12/02 04:29:47;;;;;;;0.50;0.50;;;;;;;;;;6195775;23;20020;-90
2023/12/02 04:32:12;;;;;;;0.50;0.50;;;;;;;;;;6194028;23;20044;-88
2023/12/02 04:34:38;;;;;;;0.60;0.60;;;;;;;;;;6194885;23;20016;-88
2023/12/02 04:37:06;;;;;;;0.60;0.60;;;;;;;;;;6220731;23;20321;-88
2023/12/02 04:39:32;;;;;;;0.50;0.50;;;;;;;;;;6194790;23;20009;-88
2023/12/02 04:41:58;;;;;;;0.50;0.50;;;;;;;;;;6195430;23;20040;-88
2023/12/02 04:44:24;;;;;;;0.50;0.50;;;;;;;;;;6194348;23;20016;-89
2023/12/02 04:46:50;;;;;;;0.50;0.50;;;;;;;;;;6219602;23;20023;-87
2023/12/02 04:49:18;;;;;;;0.50;0.50;;;;;;;;;;6194031;23;20046;-89
2023/12/02 04:51:44;;;;;;;0.50;0.50;;;;;;;;;;6221207;23;20399;-88
2023/12/02 04:54:10;;;;;;;0.50;0.50;;;;;;;;;;6195090;23;20048;-88
2023/12/02 04:56:37;;;;;;;0.60;0.60;;;;;;;;;;6220424;23;20336;-89
2023/12/02 04:59:03;;;;;;;0.50;0.50;;;;;;;;;;6193482;23;20020;-89
2023/12/02 05:01:29;;;;;;;0.50;0.50;;;;;;;;;;6192455;23;20019;-89
2023/12/02 05:03:55;;;;;;;0.50;0.50;;;;;;;;;;6221188;23;20036;-89
2023/12/02 05:06:24;;;;;;;0.43;0.43;;;;;;;;;;6221174;23;20021;-89
2023/12/02 05:08:50;;;;;;;0.60;0.60;;;;;;;;;;6218603;22;20047;-89
2023/12/02 05:11:18;;;;;;;0.60;0.60;;;;;;;;;;6194390;23;20021;-89
2023/12/02 05:13:44;;;;;;;0.60;0.60;;;;;;;;;;6193762;23;20028;-87
2023/12/02 05:16:10;;;;;;;0.50;0.50;;;;;;;;;;6219762;23;20016;-88
2023/12/02 05:18:37;;;;;;;0.50;0.50;;;;;;;;;;6193688;23;20040;-88
2023/12/02 05:21:04;;;;;;;0.50;0.50;;;;;;;;;;6193926;23;20472;-89
2023/12/02 05:23:31;;;;;;;0.50;0.50;;;;;;;;;;6220166;23;20013;-88
2023/12/02 05:25:57;;;;;;;0.60;0.60;;;;;;;;;;6195036;23;20036;-89
2023/12/02 05:28:23;;;;;;;0.50;0.50;;;;;;;;;;6192383;23;20348;-89
2023/12/02 05:30:50;;;;;;;0.50;0.50;;;;;;;;;;6220343;23;20017;-89
2023/12/02 05:33:17;;;;;;;0.50;0.50;;;;;;;;;;6194135;23;20017;-88
2023/12/02 05:35:43;;;;;;;0.55;0.55;;;;;;;;;;6195003;23;20066;-89
2023/12/02 05:38:09;;;;;;;0.52;0.52;;;;;;;;;;6170124;23;20024;-89
2023/12/02 05:40:35;;;;;;;0.50;0.50;;;;;;;;;;6224519;23;20019;-89
2023/12/02 05:43:01;;;;;;;0.60;0.60;;;;;;;;;;6222104;23;20036;-89
2023/12/02 05:45:27;;;;;;;0.55;0.55;;;;;;;;;;6221855;23;20020;-88
2023/12/02 05:47:53;;;;;;;0.57;0.57;;;;;;;;;;6219784;23;20012;-89
2023/12/02 05:50:21;;;;;;;0.50;0.50;;;;;;;;;;6221516;23;20471;-89
2023/12/02 05:52:47;;;;;;;0.50;0.50;;;;;;;;;;6195163;23;20395;-88
2023/12/02 05:55:13;;;;;;;0.50;0.50;;;;;;;;;;6196856;23;20020;-88
2023/12/02 05:57:39;;;;;;;0.55;0.55;;;;;;;;;;6196201;23;20019;-88
2023/12/02 06:00:06;;;;;;;0.50;0.50;;;;;;;;;;6194308;23;20016;-88
2023/12/02 06:02:32;;;;;;;0.50;0.50;;;;;;;;;;6198299;23;20026;-89
2023/12/02 06:04:58;;;;;;;0.60;0.60;;;;;;;;;;6195668;23;20015;-88
2023/12/02 06:07:24;;;;;;;0.50;0.50;;;;;;;;;;6220895;23;20048;-89
2023/12/02 06:09:50;;;;;;;0.50;0.50;;;;;;;;;;6223075;22;20333;-89
2023/12/02 06:12:16;;;;;;;0.50;0.50;;;;;;;;;;6220900;23;20027;-89
2023/12/02 06:14:42;;;;;;;0.50;0.50;;;;;;;;;;6199517;23;20020;-90
2023/12/02 06:17:10;;;;;;;0.50;0.50;;;;;;;;;;6221815;23;20017;-88
2023/12/02 06:19:36;;;;;;;0.50;0.50;;;;;;;;;;6196657;23;20091;-89
2023/12/02 06:22:02;;;;;;;0.57;0.57;;;;;;;;;;6226043;23;20017;-89
2023/12/02 06:24:28;;;;;;;0.50;0.50;;;;;;;;;;6221843;23;20067;-89
2023/12/02 06:26:55;;;;;;;0.60;0.60;;;;;;;;;;6222229;23;20016;-89
2023/12/02 06:29:21;;;;;;;0.60;0.60;;;;;;;;;;6198055;23;20020;-90
2023/12/02 06:31:51;;;;;;;0.50;0.50;;;;;;;;;;6173312;23;20347;-87
2023/12/02 06:34:17;;;;;;;0.50;0.50;;;;;;;;;;6221438;23;20751;-89
2023/12/02 06:36:44;;;;;;;0.50;0.50;;;;;;;;;;6221981;23;20023;-88
2023/12/02 06:39:15;;;;;;;0.50;0.50;;;;;;;;;;6195361;23;20463;-88
2023/12/02 06:41:41;;;;;;;0.50;0.50;;;;;;;;;;6195001;23;20020;-89
2023/12/02 06:44:10;;;;;;;0.50;0.50;;;;;;;;;;6196541;23;20103;-89
2023/12/02 06:46:36;;;;;;;0.50;0.50;;;;;;;;;;6222033;23;20309;-89
2023/12/02 06:49:04;;;;;;;0.50;0.50;;;;;;;;;;6221180;23;20074;-87
2023/12/02 06:51:30;;;;;;;0.50;0.50;;;;;;;;;;6195806;23;20017;-89
2023/12/02 06:53:57;;;;;;;0.50;0.50;;;;;;;;;;6196053;23;20479;-89
2023/12/02 06:56:24;;;;;;;0.60;0.60;;;;;;;;;;6197531;23;20013;-90
2023/12/02 06:58:51;;;;;;;0.50;0.50;;;;;;;;;;6195907;23;20016;-89
2023/12/02 07:01:46;;;;;;;0.57;0.57;;;;;;;;;;6196600;23;20069;-90
2023/12/02 07:04:15;;;;;;;0.50;0.50;;;;;;;;;;6216960;23;20012;-89
2023/12/02 07:06:41;;;;;;;0.50;0.50;;;;;;;;;;6221126;23;20027;-88
2023/12/02 07:09:08;;;;;;;0.50;0.50;;;;;;;;;;6221168;22;20092;-89
2023/12/02 07:11:34;;;;;;;0.50;0.50;;;;;;;;;;6222846;23;20035;-89
2023/12/02 07:14:02;;;;;;;0.50;0.50;;;;;;;;;;6221263;23;20016;-89
2023/12/02 07:16:28;;;;;;;0.50;0.50;;;;;;;;;;6196552;23;20016;-89
2023/12/02 07:18:54;;;;;;;0.50;0.50;;;;;;;;;;6198170;23;20008;-89
2023/12/02 07:21:22;;;;;;;0.50;0.50;;;;;;;;;;6221953;23;20074;-89
2023/12/02 07:23:48;;;;;;;0.60;0.60;;;;;;;;;;6200154;23;20021;-89
2023/12/02 07:26:14;;;;;;;0.60;0.60;;;;;;;;;;6198234;23;20025;-90
2023/12/02 07:28:41;;;;;;;0.50;0.50;;;;;;;;;;6193843;23;20406;-89
2023/12/02 07:31:12;;;;;;;0.50;0.50;;;;;;;;;;6194904;23;20016;-89
2023/12/02 07:33:38;;;;;;;0.60;0.60;;;;;;;;;;6200345;23;20012;-89
2023/12/02 07:36:04;;;;;;;0.50;0.50;;;;;;;;;;6197302;23;20159;-89
2023/12/02 07:38:32;;;;;;;0.60;0.60;;;;;;;;;;6199910;23;20068;-88
2023/12/02 07:40:58;;;;;;;0.50;0.50;;;;;;;;;;6199152;23;20013;-90
2023/12/02 07:43:23;;;;;;;0.60;0.60;;;;;;;;;;6196265;23;20013;-89
2023/12/02 07:45:51;;;;;;;0.50;0.50;;;;;;;;;;6196307;23;20020;-89
2023/12/02 07:48:17;;;;;;;0.50;0.50;;;;;;;;;;6194491;23;20021;-89
2023/12/02 07:50:43;;;;;;;0.55;0.55;;;;;;;;;;6223229;23;20005;-88
2023/12/02 07:53:09;;;;;;;0.50;0.50;;;;;;;;;;6197012;23;20020;-89
2023/12/02 07:55:35;;;;;;;0.60;0.60;;;;;;;;;;6198462;23;20474;-88
2023/12/02 07:58:01;;;;;;;0.55;0.55;;;;;;;;;;6198364;23;20110;-89
2023/12/02 08:00:28;;;;;;;0.60;0.60;;;;;;;;;;6195096;23;20013;-88
2023/12/02 08:02:54;;;;;;;0.50;0.50;;;;;;;;;;6219951;23;20013;-89
2023/12/02 08:05:20;;;;;;;0.60;0.60;;;;;;;;;;6198851;23;20081;-88
2023/12/02 08:07:46;;;;;;;0.60;0.60;;;;;;;;;;6221861;23;20012;-88
2023/12/02 08:10:12;;;;;;;0.60;0.60;;;;;;;;;;6221956;23;20043;-90
2023/12/02 08:12:38;;;;;;;0.50;0.50;;;;;;;;;;6198457;23;20020;-86
2023/12/02 08:15:05;;;;;;;0.50;0.50;;;;;;;;;;6224556;23;20017;-88
2023/12/02 08:17:31;;;;;;;0.60;0.60;;;;;;;;;;6198487;23;20025;-89
2023/12/02 08:19:57;;;;;;;0.50;0.50;;;;;;;;;;6196862;23;20016;-89
2023/12/02 08:22:24;;;;;;;0.50;0.50;;;;;;;;;;6197345;23;20031;-89
2023/12/02 08:24:54;;;;;;;0.50;0.50;;;;;;;;;;6197394;23;20082;-89
2023/12/02 08:27:21;;;;;;;0.50;0.50;;;;;;;;;;6169845;23;20056;-89
2023/12/02 08:29:50;;;;;;;0.55;0.55;;;;;;;;;;6198870;23;20031;-89
2023/12/02 08:32:17;;;;;;;0.52;0.52;;;;;;;;;;6203090;23;20012;-89
2023/12/02 08:34:44;;;;;;;0.50;0.50;;;;;;;;;;6195144;23;20015;-87
2023/12/02 08:37:10;;;;;;;0.50;0.50;;;;;;;;;;6195870;23;20463;-88
2023/12/02 08:39:37;;;;;;;0.50;0.50;;;;;;;;;;6221574;23;20366;-88
2023/12/02 08:42:03;;;;;;;0.50;0.50;;;;;;;;;;6223114;23;20072;-89
2023/12/02 08:44:29;;;;;;;0.50;0.50;;;;;;;;;;6223676;23;20384;-88
2023/12/02 08:46:58;;;;;;;0.50;0.50;;;;;;;;;;6194129;23;20019;-88
2023/12/02 08:49:25;;;;;;;0.50;0.50;;;;;;;;;;6195779;23;20024;-89
2023/12/02 08:51:52;;;;;;;0.50;0.50;;;;;;;;;;6224440;23;20044;-90
2023/12/02 08:54:18;;;;;;;0.50;0.50;;;;;;;;;;6196755;23;20021;-89
2023/12/02 08:56:44;;;;;;;0.50;0.50;;;;;;;;;;6219742;23;20037;-89
2023/12/02 08:59:11;;;;;;;0.50;0.50;;;;;;;;;;6197891;23;20020;-88
2023/12/02 09:01:37;;;;;;;0.50;0.50;;;;;;;;;;6221282;23;20024;-89
2023/12/02 09:04:07;;;;;;;0.50;0.50;;;;;;;;;;6197678;23;20068;-89
2023/12/02 09:06:33;;;;;;;0.50;0.50;;;;;;;;;;6199044;23;20021;-89
2023/12/02 09:09:01;;;;;;;0.50;0.50;;;;;;;;;;6223244;23;20031;-91
2023/12/02 09:11:27;;;;;;;0.50;0.50;;;;;;;;;;6197562;23;20108;-89
2023/12/02 09:13:54;;;;;;;0.50;0.50;;;;;;;;;;6220878;23;20079;-89
2023/12/02 09:16:26;;;;;;;0.60;0.60;;;;;;;;;;6197131;23;20027;-89
2023/12/02 09:18:52;;;;;;;0.50;0.50;;;;;;;;;;6198180;23;20013;-89
2023/12/02 09:21:18;;;;;;;0.50;0.50;;;;;;;;;;6194731;23;20028;-89
2023/12/02 09:23:45;;;;;;;0.50;0.50;;;;;;;;;;6196266;23;20095;-90
2023/12/02 09:26:28;;;;;;;0.55;0.55;;;;;;;;;;6196859;23;20021;-90
2023/12/02 09:28:54;;;;;;;0.55;0.55;;;;;;;;;;6197080;23;20013;-89
2023/12/02 09:31:21;;;;;;;0.60;0.60;;;;;;;;;;6221920;23;20095;-89
2023/12/02 09:33:49;;;;;;;0.57;0.57;;;;;;;;;;6222461;23;20019;-89
2023/12/02 09:36:35;;;;;;;0.50;0.50;;;;;;;;;;6197289;23;20452;-89
2023/12/02 09:39:08;;;;;;;0.50;0.50;;;;;;;;;;6199018;23;20047;-89
2023/12/02 09:41:37;;;;;;;0.60;0.60;;;;;;;;;;6196988;23;20013;-89
2023/12/02 09:44:18;;;;;;;0.50;0.50;;;;;;;;;;6222080;23;20012;-90
2023/12/02 09:47:07;;;;;;;0.50;0.50;;;;;;;;;;6221786;23;20036;-89
2023/12/02 09:49:57;;;;;;;0.60;0.60;;;;;;;;;;6201240;23;20063;-89
2023/12/02 09:52:35;;;;;;;0.60;0.60;;;;;;;;;;6197593;23;20016;-89
2023/12/02 09:55:08;;;;;;;0.60;0.60;;;;;;;;;;6204762;23;20073;-89
2023/12/02 09:57:55;;;;;;;0.50;0.50;;;;;;;;;;6200283;23;20089;-89
2023/12/02 10:00:25;;;;;;;0.50;0.50;;;;;;;;;;6194826;23;20048;-88
2023/12/02 10:02:51;;;;;;;0.50;0.50;;;;;;;;;;6202815;23;20012;-89
2023/12/02 10:05:18;;;;;;;0.60;0.60;;;;;;;;;;6202982;23;20024;-89
2023/12/02 10:07:44;;;;;;;0.50;0.50;;;;;;;;;;6204714;23;20016;-90
2023/12/02 10:10:13;;;;;;;0.50;0.50;;;;;;;;;;6202232;23;20024;-88
2023/12/02 10:12:59;;;;;;;0.50;0.50;;;;;;;;;;6227459;23;20020;-89
2023/12/02 10:15:39;;;;;;;0.50;0.50;;;;;;;;;;6207888;23;20044;-90
2023/12/02 10:18:12;;;;;;;0.50;0.50;;;;;;;;;;6204019;23;20013;-91
2023/12/02 10:20:39;;;;;;;0.50;0.50;;;;;;;;;;6231495;23;20004;-90
2023/12/02 10:23:25;;;;;;;0.50;0.50;;;;;;;;;;6182835;23;20036;-91
2023/12/02 10:29:40;;;;;;;0.50;0.50;;;;;;;;;;6247373;23;20019;-91
2023/12/02 10:32:32;;;;;;;0.50;0.50;;;;;;;;;;6235917;23;20004;-89
2023/12/02 10:35:18;;;;;;;0.50;0.50;;;;;;;;;;6213043;23;20044;-89
2023/12/02 10:37:44;;;;;;;0.55;0.55;;;;;;;;;;6212908;23;20448;-90
2023/12/02 10:40:13;;;;;;;0.60;0.60;;;;;;;;;;6174060;23;20093;-89
2023/12/02 10:42:55;;;;;;;0.50;0.50;;;;;;;;;;6203625;23;20021;-91
2023/12/02 10:45:22;;;;;;;0.50;0.50;;;;;;;;;;6227848;23;20012;-91
2023/12/02 10:47:53;;;;;;;0.60;0.60;;;;;;;;;;6179404;23;20093;-89
2023/12/02 10:50:20;;;;;;;0.50;0.50;;;;;;;;;;6202330;23;20016;-89
2023/12/02 10:53:03;;;;;;;0.60;0.60;;;;;;;;;;6228522;23;20012;-88
2023/12/02 10:55:31;;;;;;;0.50;0.50;;;;;;;;;;6206008;23;20021;-89
2023/12/02 10:57:58;;;;;;;0.50;0.50;;;;;;;;;;6203433;23;20017;-88
2023/12/02 11:00:27;;;;;;;0.50;0.50;;;;;;;;;;6201635;23;20016;-90
2023/12/02 11:03:07;;;;;;;0.50;0.50;;;;;;;;;;6225658;23;20012;-89
2023/12/02 11:05:49;;;;;;;0.50;0.50;;;;;;;;;;6201653;23;20067;-88
2023/12/02 11:08:19;;;;;;;0.60;0.60;;;;;;;;;;6203036;23;20525;-88
2023/12/02 11:10:45;;;;;;;0.50;0.50;;;;;;;;;;6202181;23;20017;-89
2023/12/02 11:13:13;;;;;;;0.50;0.50;;;;;;;;;;6203190;23;20020;-89
2023/12/02 11:15:56;;;;;;;0.50;0.50;;;;;;;;;;6200578;23;20012;-89
2023/12/02 11:18:55;;;;;;;0.50;0.50;;;;;;;;;;6222129;23;20020;-89
2023/12/02 11:21:42;;;;;;;0.60;0.60;;;;;;;;;;6182209;23;20046;-88
2023/12/02 11:24:16;;;;;;;0.60;0.60;;;;;;;;;;6193770;23;20020;-88
2023/12/02 11:26:48;;;;;;;0.60;0.60;;;;;;;;;;6225290;23;20004;-88
2023/12/02 11:29:37;;;;;;;0.60;0.60;;;;;;;;;;6199223;23;20012;-89
2023/12/02 11:32:06;;;;;;;0.50;0.50;;;;;;;;;;6187961;23;20020;-89
2023/12/02 11:34:53;;;;;;;0.50;0.50;;;;;;;;;;6231412;23;20016;-89
2023/12/02 11:37:19;;;;;;;0.52;0.52;;;;;;;;;;6205607;23;20012;-89
2023/12/02 11:39:46;;;;;;;0.50;0.50;;;;;;;;;;6230655;23;20091;-90
2023/12/02 11:42:19;;;;;;;0.50;0.50;;;;;;;;;;6231562;23;20008;-88
2023/12/02 11:44:57;;;;;;;0.50;0.50;;;;;;;;;;6204389;23;20023;-91
2023/12/02 11:47:34;;;;;;;0.60;0.60;;;;;;;;;;6205182;23;20016;-89
2023/12/02 11:50:07;;;;;;;0.60;0.60;;;;;;;;;;6228042;23;20048;-89
2023/12/02 11:52:45;;;;;;;0.50;0.50;;;;;;;;;;6208431;23;20025;-89
2023/12/02 11:55:16;;;;;;;0.55;0.55;;;;;;;;;;6211300;23;20032;-90
2023/12/02 11:58:02;;;;;;;0.50;0.50;;;;;;;;;;6208714;23;20020;-90
2023/12/02 12:00:49;;;;;;;0.45;0.45;;;;;;;;;;6231548;23;19996;-89
2023/12/02 12:03:28;;;;;;;0.40;0.40;;;;;;;;;;6209753;23;20031;-89
2023/12/02 12:06:07;;;;;;;0.50;0.50;;;;;;;;;;6209980;23;20017;-90
2023/12/02 12:08:41;;;;;;;0.50;0.50;;;;;;;;;;6233916;23;20372;-90
2023/12/02 12:11:09;;;;;;;0.50;0.50;;;;;;;;;;6207401;23;20141;-90
2023/12/02 12:13:36;;;;;;;0.50;0.50;;;;;;;;;;6184464;23;20013;-90
2023/12/02 12:16:03;;;;;;;1.40;1.23;;;;;;;;;;6206357;23;20012;-90
2023/12/02 12:18:29;;;;;;;0.60;0.60;;;;;;;;;;6209201;23;20024;-89
2023/12/02 12:20:55;;;;;;;0.57;0.57;;;;;;;;;;6235243;23;20016;-89
2023/12/02 12:23:28;;;;;;;0.50;0.50;;;;;;;;;;6208863;23;20031;-88
2023/12/02 12:25:54;;;;;;;0.50;0.50;;;;;;;;;;6208460;23;20040;-89
2023/12/02 12:28:20;;;;;;;0.50;0.50;;;;;;;;;;6206619;23;20028;-90
2023/12/02 12:30:47;;;;;;;0.50;0.50;;;;;;;;;;6208975;23;20021;-88
2023/12/02 12:33:15;;;;;;;0.50;0.50;;;;;;;;;;6212964;23;20005;-89
2023/12/02 12:35:46;;;;;;;0.50;0.50;;;;;;;;;;6237991;23;20040;-89
2023/12/02 12:40:50;;;;;;;0.50;0.50;;;;;;;;;;6255788;22;20024;-89
2023/12/02 12:43:23;;;;;;;0.50;0.50;;;;;;;;;;6233064;22;20031;-90
2023/12/02 12:45:52;;;;;;;0.50;0.50;;;;;;;;;;6268376;22;20024;-89
2023/12/02 12:48:28;;;;;;;0.50;0.50;;;;;;;;;;6270741;22;20062;-89
2023/12/02 12:51:15;;;;;;;0.50;0.50;;;;;;;;;;6269156;23;20023;-89
2023/12/02 12:59:44;;;;;;;0.60;0.60;;;;;;;;;;6279153;22;20015;-90
2023/12/02 13:02:16;;;;;;;0.50;0.50;;;;;;;;;;6222489;22;20027;-88
2023/12/02 13:05:20;;;;;;;0.50;0.50;;;;;;;;;;6248580;23;20038;-90
2023/12/02 13:08:01;;;;;;;0.50;0.50;;;;;;;;;;6241475;23;20055;-90
2023/12/02 13:10:31;;;;;;;0.60;0.60;;;;;;;;;;6242430;23;20000;-90
2023/12/02 13:13:13;;;;;;;0.50;0.50;;;;;;;;;;6245651;23;20008;-89
2023/12/02 13:19:27;;;;;;;0.60;0.60;;;;;;;;;;6281154;23;20010;-90
2023/12/02 13:21:59;;;;;;;0.50;0.50;;;;;;;;;;6269695;22;20031;-89
2023/12/02 13:24:26;;;;;;;0.55;0.55;;;;;;;;;;6241443;22;20020;-90
2023/12/02 13:27:02;;;;;;;0.50;0.50;;;;;;;;;;6223938;22;20074;-90
2023/12/02 13:29:28;;;;;;;0.50;0.50;;;;;;;;;;6274915;22;20012;-90
2023/12/02 13:31:59;;;;;;;0.60;0.60;;;;;;;;;;6241833;23;20001;-90
2023/12/02 13:34:37;;;;;;;0.60;0.60;;;;;;;;;;6214753;23;20091;-90
2023/12/02 13:42:25;;;;;;;0.50;0.50;;;;;;;;;;6241733;22;20024;-90
2023/12/02 13:45:06;;;;;;;0.60;0.60;;;;;;;;;;6238916;23;20095;-89
2023/12/02 13:55:59;;;;;;;0.60;0.60;;;;;;;;;;6261239;22;20011;-90
2023/12/02 13:58:33;;;;;;;0.50;0.50;;;;;;;;;;6251238;22;20022;-90
2023/12/02 14:01:21;;;;;;;1.00;0.95;;;;;;;;;;6218083;22;20008;-91
2023/12/02 14:04:24;;;;;;;0.50;0.50;;;;;;;;;;6230475;22;20016;-90
2023/12/02 14:07:00;;;;;;;0.50;0.50;;;;;;;;;;6231114;22;20012;-89
2023/12/02 14:09:27;;;;;;;0.50;0.50;;;;;;;;;;6260823;22;20012;-92
2023/12/02 14:12:06;;;;;;;0.52;0.52;;;;;;;;;;6234807;22;20015;-88
2023/12/02 14:14:57;;;;;;;0.60;0.60;;;;;;;;;;6233815;22;20382;-91
2023/12/02 14:17:26;;;;;;;0.50;0.50;;;;;;;;;;6238106;22;20016;-91
2023/12/02 14:20:07;;;;;;;0.50;0.50;;;;;;;;;;6238630;22;20010;-89
2023/12/02 14:22:33;;;;;;;0.50;0.50;;;;;;;;;;6251406;22;20024;-91
2023/12/02 14:25:27;;;;;;;0.60;0.60;;;;;;;;;;6275712;22;20019;-91
2023/12/02 14:28:07;;;;;;;0.50;0.50;;;;;;;;;;6275523;22;20020;-90
2023/12/02 14:30:36;;;;;;;0.50;0.50;;;;;;;;;;6245541;22;20008;-91
2023/12/02 14:33:04;;;;;;;0.50;0.50;;;;;;;;;;6249734;22;19996;-93
2023/12/02 14:35:51;;;;;;;0.65;0.65;;;;;;;;;;6277247;22;20055;-92
2023/12/02 14:41:37;;;;;;;0.50;0.50;;;;;;;;;;6269410;22;20019;-91
2023/12/02 14:44:22;;;;;;;0.50;0.50;;;;;;;;;;6268154;22;20031;-92
2023/12/02 14:52:03;;;;;;;0.60;0.60;;;;;;;;;;6283803;22;20047;-90
2023/12/02 14:54:32;;;;;;;0.60;0.60;;;;;;;;;;6250869;22;20046;-92
2023/12/02 14:57:18;;;;;;;0.60;0.60;;;;;;;;;;6249794;22;20019;-90
2023/12/02 14:59:53;;;;;;;0.50;0.50;;;;;;;;;;6250096;22;20061;-92
2023/12/02 15:02:42;;;;;;;0.60;0.60;;;;;;;;;;6275260;22;20012;-93
2023/12/02 15:05:09;;;;;;;0.90;0.90;;;;;;;;;;6274232;22;20028;-92
2023/12/02 15:12:52;;;;;;;0.50;0.50;;;;;;;;;;6277600;22;20024;-92
2023/12/02 15:15:33;;;;;;;0.50;0.50;;;;;;;;;;6271881;22;20007;-90
2023/12/02 15:25:48;;;;;;;0.50;0.50;;;;;;;;;;6242330;22;20079;-90
2023/12/02 15:36:02;;;;;;;0.50;0.50;;;;;;;;;;6272923;22;20008;-90
2023/12/02 15:38:48;;;;;;;0.50;0.50;;;;;;;;;;6251139;23;20064;-92
2023/12/02 15:41:14;;;;;;;0.47;0.47;;;;;;;;;;6197652;22;20035;-90
2023/12/02 15:44:16;;;;;;;0.50;0.50;;;;;;;;;;6240048;23;20027;-88
2023/12/02 15:46:49;;;;;;;0.50;0.50;;;;;;;;;;6220333;23;20042;-89
2023/12/02 16:08:18;;;;;;;0.50;0.50;;;;;;;;;;6272442;22;20012;-90
2023/12/02 16:10:58;;;;;;;0.50;0.50;;;;;;;;;;6275210;22;20022;-88
2023/12/02 16:36:51;;;;;;;0.70;0.70;;;;;;;;;;6272302;22;20024;-89
2023/12/02 16:39:17;;;;;;;0.60;0.60;;;;;;;;;;6246115;23;20035;-90